sensor_id;sensor_type;location;lat;lon;timestamp;temperature;humidity
46926;DHT22;32667;48.248;-1.700;2024-01-10T00:01:21;1.50;78.80
46926;DHT22;32667;48.248;-1.700;2024-01-10T00:03:52;1.60;79.00
46926;DHT22;32667;48.248;-1.700;2024-01-10T00:06:18;1.60;79.10
46926;DHT22;32667;48.248;-1.700;2024-01-10T00:08:44;1.50;79.10
46926;DHT22;32667;48.248;-1.700;2024-01-10T00:11:09;1.60;79.10
46926;DHT22;32667;48.248;-1.700;2024-01-10T00:13:42;1.60;79.20
46926;DHT22;32667;48.248;-1.700;2024-01-10T00:16:14;1.60;79.20
46926;DHT22;32667;48.248;-1.700;2024-01-10T00:18:40;1.70;79.10
46926;DHT22;32667;48.248;-1.700;2024-01-10T00:21:07;1.70;78.90
46926;DHT22;32667;48.248;-1.700;2024-01-10T00:23:32;1.70;78.80
46926;DHT22;32667;48.248;-1.700;2024-01-10T00:25:58;1.70;78.80
46926;DHT22;32667;48.248;-1.700;2024-01-10T00:28:25;1.70;78.80
46926;DHT22;32667;48.248;-1.700;2024-01-10T00:30:50;1.70;78.70
46926;DHT22;32667;48.248;-1.700;2024-01-10T00:33:16;1.70;78.70
46926;DHT22;32667;48.248;-1.700;2024-01-10T00:35:43;1.70;78.70
46926;DHT22;32667;48.248;-1.700;2024-01-10T00:38:09;1.70;78.70
46926;DHT22;32667;48.248;-1.700;2024-01-10T00:40:34;1.60;78.80
46926;DHT22;32667;48.248;-1.700;2024-01-10T00:43:05;1.60;78.80
46926;DHT22;32667;48.248;-1.700;2024-01-10T00:45:30;1.60;79.00
46926;DHT22;32667;48.248;-1.700;2024-01-10T00:47:59;1.50;78.90
46926;DHT22;32667;48.248;-1.700;2024-01-10T00:50:34;1.50;78.90
46926;DHT22;32667;48.248;-1.700;2024-01-10T00:52:59;1.50;78.90
46926;DHT22;32667;48.248;-1.700;2024-01-10T00:55:28;1.40;78.90
46926;DHT22;32667;48.248;-1.700;2024-01-10T00:57:56;1.40;79.10
46926;DHT22;32667;48.248;-1.700;2024-01-10T01:00:21;1.40;79.50
46926;DHT22;32667;48.248;-1.700;2024-01-10T01:02:49;1.40;79.10
46926;DHT22;32667;48.248;-1.700;2024-01-10T01:05:15;1.40;79.00
46926;DHT22;32667;48.248;-1.700;2024-01-10T01:07:43;1.50;79.00
46926;DHT22;32667;48.248;-1.700;2024-01-10T01:10:09;1.40;78.90
46926;DHT22;32667;48.248;-1.700;2024-01-10T01:12:37;1.40;78.90
46926;DHT22;32667;48.248;-1.700;2024-01-10T01:15:06;1.30;78.90
46926;DHT22;32667;48.248;-1.700;2024-01-10T01:17:32;1.30;78.90
46926;DHT22;32667;48.248;-1.700;2024-01-10T01:20:02;1.20;79.00
46926;DHT22;32667;48.248;-1.700;2024-01-10T01:22:34;1.20;79.20
46926;DHT22;32667;48.248;-1.700;2024-01-10T01:25:03;1.10;79.20
46926;DHT22;32667;48.248;-1.700;2024-01-10T01:27:28;1.10;79.30
46926;DHT22;32667;48.248;-1.700;2024-01-10T01:29:56;1.10;79.30
46926;DHT22;32667;48.248;-1.700;2024-01-10T01:32:22;1.10;79.30
46926;DHT22;32667;48.248;-1.700;2024-01-10T01:34:48;1.10;79.30
46926;DHT22;32667;48.248;-1.700;2024-01-10T01:37:13;1.10;79.30
46926;DHT22;32667;48.248;-1.700;2024-01-10T01:39:39;1.10;79.20
46926;DHT22;32667;48.248;-1.700;2024-01-10T01:42:07;1.20;79.20
46926;DHT22;32667;48.248;-1.700;2024-01-10T01:44:36;1.20;79.20
46926;DHT22;32667;48.248;-1.700;2024-01-10T01:47:03;1.20;79.20
46926;DHT22;32667;48.248;-1.700;2024-01-10T01:49:31;1.20;79.10
46926;DHT22;32667;48.248;-1.700;2024-01-10T01:52:00;1.20;79.10
46926;DHT22;32667;48.248;-1.700;2024-01-10T01:54:30;1.10;79.10
46926;DHT22;32667;48.248;-1.700;2024-01-10T01:56:56;1.20;79.20
46926;DHT22;32667;48.248;-1.700;2024-01-10T01:59:23;1.20;79.20
46926;DHT22;32667;48.248;-1.700;2024-01-10T02:01:54;1.10;79.10
46926;DHT22;32667;48.248;-1.700;2024-01-10T02:04:23;1.20;79.10
46926;DHT22;32667;48.248;-1.700;2024-01-10T02:06:49;1.20;79.10
46926;DHT22;32667;48.248;-1.700;2024-01-10T02:09:15;1.20;79.10
46926;DHT22;32667;48.248;-1.700;2024-01-10T02:11:48;1.10;79.00
46926;DHT22;32667;48.248;-1.700;2024-01-10T02:14:19;1.10;79.20
46926;DHT22;32667;48.248;-1.700;2024-01-10T02:16:45;1.10;79.20
46926;DHT22;32667;48.248;-1.700;2024-01-10T02:19:23;1.10;79.10
46926;DHT22;32667;48.248;-1.700;2024-01-10T02:21:52;1.20;79.10
46926;DHT22;32667;48.248;-1.700;2024-01-10T02:24:18;1.20;79.10
46926;DHT22;32667;48.248;-1.700;2024-01-10T02:26:43;1.20;79.10
46926;DHT22;32667;48.248;-1.700;2024-01-10T02:29:13;1.20;79.00
46926;DHT22;32667;48.248;-1.700;2024-01-10T02:31:49;1.20;79.00
46926;DHT22;32667;48.248;-1.700;2024-01-10T02:34:15;1.30;79.00
46926;DHT22;32667;48.248;-1.700;2024-01-10T02:36:41;1.30;78.90
46926;DHT22;32667;48.248;-1.700;2024-01-10T02:39:14;1.30;78.90
46926;DHT22;32667;48.248;-1.700;2024-01-10T02:41:39;1.30;78.80
46926;DHT22;32667;48.248;-1.700;2024-01-10T02:44:08;1.30;78.80
46926;DHT22;32667;48.248;-1.700;2024-01-10T02:46:33;1.30;78.80
46926;DHT22;32667;48.248;-1.700;2024-01-10T02:49:02;1.30;78.90
46926;DHT22;32667;48.248;-1.700;2024-01-10T02:51:27;1.30;78.90
46926;DHT22;32667;48.248;-1.700;2024-01-10T02:53:55;1.30;79.00
46926;DHT22;32667;48.248;-1.700;2024-01-10T02:56:28;1.30;78.90
46926;DHT22;32667;48.248;-1.700;2024-01-10T02:58:54;1.30;78.90
46926;DHT22;32667;48.248;-1.700;2024-01-10T03:01:20;1.30;79.00
46926;DHT22;32667;48.248;-1.700;2024-01-10T03:03:45;1.30;79.00
46926;DHT22;32667;48.248;-1.700;2024-01-10T03:06:16;1.30;78.90
46926;DHT22;32667;48.248;-1.700;2024-01-10T03:08:44;1.20;78.90
46926;DHT22;32667;48.248;-1.700;2024-01-10T03:11:17;1.20;78.90
46926;DHT22;32667;48.248;-1.700;2024-01-10T03:14:01;1.20;78.90
46926;DHT22;32667;48.248;-1.700;2024-01-10T03:16:30;1.20;79.00
46926;DHT22;32667;48.248;-1.700;2024-01-10T03:18:58;1.20;79.10
46926;DHT22;32667;48.248;-1.700;2024-01-10T03:21:24;1.20;79.10
46926;DHT22;32667;48.248;-1.700;2024-01-10T03:23:56;1.20;79.00
46926;DHT22;32667;48.248;-1.700;2024-01-10T03:26:22;1.20;79.00
46926;DHT22;32667;48.248;-1.700;2024-01-10T03:28:51;1.10;79.20
46926;DHT22;32667;48.248;-1.700;2024-01-10T03:31:27;1.20;79.10
46926;DHT22;32667;48.248;-1.700;2024-01-10T03:33:55;1.20;79.00
46926;DHT22;32667;48.248;-1.700;2024-01-10T03:36:23;1.20;79.00
46926;DHT22;32667;48.248;-1.700;2024-01-10T03:38:50;1.10;78.90
46926;DHT22;32667;48.248;-1.700;2024-01-10T03:41:17;1.10;78.90
46926;DHT22;32667;48.248;-1.700;2024-01-10T03:43:45;1.10;79.00
46926;DHT22;32667;48.248;-1.700;2024-01-10T03:46:12;1.10;79.10
46926;DHT22;32667;48.248;-1.700;2024-01-10T03:48:38;1.00;79.60
46926;DHT22;32667;48.248;-1.700;2024-01-10T03:51:13;1.10;79.10
46926;DHT22;32667;48.248;-1.700;2024-01-10T03:53:39;1.00;79.00
46926;DHT22;32667;48.248;-1.700;2024-01-10T03:56:09;1.00;79.10
46926;DHT22;32667;48.248;-1.700;2024-01-10T03:58:42;1.00;79.10
46926;DHT22;32667;48.248;-1.700;2024-01-10T04:01:10;1.00;79.10
46926;DHT22;32667;48.248;-1.700;2024-01-10T04:03:36;0.90;79.10
46926;DHT22;32667;48.248;-1.700;2024-01-10T04:06:09;1.00;79.10
46926;DHT22;32667;48.248;-1.700;2024-01-10T04:08:35;1.00;79.20
46926;DHT22;32667;48.248;-1.700;2024-01-10T04:11:05;1.00;79.70
46926;DHT22;32667;48.248;-1.700;2024-01-10T04:13:34;1.00;79.00
46926;DHT22;32667;48.248;-1.700;2024-01-10T04:16:02;0.90;79.00
46926;DHT22;32667;48.248;-1.700;2024-01-10T04:18:31;1.00;79.00
46926;DHT22;32667;48.248;-1.700;2024-01-10T04:20:56;1.00;79.60
46926;DHT22;32667;48.248;-1.700;2024-01-10T04:23:26;1.00;79.10
46926;DHT22;32667;48.248;-1.700;2024-01-10T04:25:55;0.90;79.00
46926;DHT22;32667;48.248;-1.700;2024-01-10T04:28:20;1.00;79.00
46926;DHT22;32667;48.248;-1.700;2024-01-10T04:30:46;0.90;79.00
46926;DHT22;32667;48.248;-1.700;2024-01-10T04:33:12;0.90;79.10
46926;DHT22;32667;48.248;-1.700;2024-01-10T04:35:37;0.90;79.10
46926;DHT22;32667;48.248;-1.700;2024-01-10T04:38:10;0.90;79.00
46926;DHT22;32667;48.248;-1.700;2024-01-10T04:40:38;1.00;79.10
46926;DHT22;32667;48.248;-1.700;2024-01-10T04:43:04;0.90;78.90
46926;DHT22;32667;48.248;-1.700;2024-01-10T04:45:30;1.00;79.00
46926;DHT22;32667;48.248;-1.700;2024-01-10T04:47:56;0.90;78.90
46926;DHT22;32667;48.248;-1.700;2024-01-10T04:50:22;0.90;79.00
46926;DHT22;32667;48.248;-1.700;2024-01-10T04:52:47;0.90;79.00
46926;DHT22;32667;48.248;-1.700;2024-01-10T04:55:18;0.90;79.10
46926;DHT22;32667;48.248;-1.700;2024-01-10T04:57:46;0.90;79.10
46926;DHT22;32667;48.248;-1.700;2024-01-10T05:00:12;0.90;79.00
46926;DHT22;32667;48.248;-1.700;2024-01-10T05:02:37;1.00;79.10
46926;DHT22;32667;48.248;-1.700;2024-01-10T05:05:10;1.00;79.00
46926;DHT22;32667;48.248;-1.700;2024-01-10T05:07:36;1.00;79.00
46926;DHT22;32667;48.248;-1.700;2024-01-10T05:10:04;1.00;78.90
46926;DHT22;32667;48.248;-1.700;2024-01-10T05:12:30;1.00;78.90
46926;DHT22;32667;48.248;-1.700;2024-01-10T05:14:56;1.00;79.00
46926;DHT22;32667;48.248;-1.700;2024-01-10T05:17:22;1.00;78.90
46926;DHT22;32667;48.248;-1.700;2024-01-10T05:19:50;0.90;78.90
46926;DHT22;32667;48.248;-1.700;2024-01-10T05:22:18;0.90;79.10
46926;DHT22;32667;48.248;-1.700;2024-01-10T05:24:44;0.90;79.20
46926;DHT22;32667;48.248;-1.700;2024-01-10T05:27:12;0.90;79.20
46926;DHT22;32667;48.248;-1.700;2024-01-10T05:29:40;1.00;79.20
46926;DHT22;32667;48.248;-1.700;2024-01-10T05:32:06;1.00;79.10
46926;DHT22;32667;48.248;-1.700;2024-01-10T05:34:35;1.00;79.00
46926;DHT22;32667;48.248;-1.700;2024-01-10T05:37:08;1.00;79.00
46926;DHT22;32667;48.248;-1.700;2024-01-10T05:39:42;1.00;79.00
46926;DHT22;32667;48.248;-1.700;2024-01-10T05:42:09;1.00;78.90
46926;DHT22;32667;48.248;-1.700;2024-01-10T05:44:37;1.00;79.00
46926;DHT22;32667;48.248;-1.700;2024-01-10T05:47:05;1.10;79.00
46926;DHT22;32667;48.248;-1.700;2024-01-10T05:49:31;1.00;79.00
46926;DHT22;32667;48.248;-1.700;2024-01-10T05:51:58;1.00;78.90
46926;DHT22;32667;48.248;-1.700;2024-01-10T05:54:24;1.00;79.00
46926;DHT22;32667;48.248;-1.700;2024-01-10T05:56:49;1.10;79.00
46926;DHT22;32667;48.248;-1.700;2024-01-10T05:59:15;1.10;79.00
46926;DHT22;32667;48.248;-1.700;2024-01-10T06:01:42;1.10;79.00
46926;DHT22;32667;48.248;-1.700;2024-01-10T06:04:08;1.10;79.00
46926;DHT22;32667;48.248;-1.700;2024-01-10T06:06:36;1.10;78.90
46926;DHT22;32667;48.248;-1.700;2024-01-10T06:09:01;1.10;78.90
46926;DHT22;32667;48.248;-1.700;2024-01-10T06:11:35;1.10;78.90
46926;DHT22;32667;48.248;-1.700;2024-01-10T06:14:05;1.10;78.90
46926;DHT22;32667;48.248;-1.700;2024-01-10T06:16:31;1.10;79.00
46926;DHT22;32667;48.248;-1.700;2024-01-10T06:18:56;1.10;79.00
46926;DHT22;32667;48.248;-1.700;2024-01-10T06:21:23;1.10;78.90
46926;DHT22;32667;48.248;-1.700;2024-01-10T06:23:48;1.10;78.90
46926;DHT22;32667;48.248;-1.700;2024-01-10T06:26:14;1.00;78.90
46926;DHT22;32667;48.248;-1.700;2024-01-10T06:28:40;1.10;79.00
46926;DHT22;32667;48.248;-1.700;2024-01-10T06:31:06;1.10;79.00
46926;DHT22;32667;48.248;-1.700;2024-01-10T06:33:35;1.00;78.90
46926;DHT22;32667;48.248;-1.700;2024-01-10T06:36:00;1.00;78.90
46926;DHT22;32667;48.248;-1.700;2024-01-10T06:38:28;1.00;79.00
46926;DHT22;32667;48.248;-1.700;2024-01-10T06:40:56;1.00;79.00
46926;DHT22;32667;48.248;-1.700;2024-01-10T06:43:39;1.00;79.00
46926;DHT22;32667;48.248;-1.700;2024-01-10T06:46:10;0.90;79.00
46926;DHT22;32667;48.248;-1.700;2024-01-10T06:48:36;0.90;79.10
46926;DHT22;32667;48.248;-1.700;2024-01-10T06:51:12;0.90;79.10
46926;DHT22;32667;48.248;-1.700;2024-01-10T06:53:39;0.90;79.20
46926;DHT22;32667;48.248;-1.700;2024-01-10T06:56:05;1.00;79.10
46926;DHT22;32667;48.248;-1.700;2024-01-10T06:58:35;0.90;79.00
46926;DHT22;32667;48.248;-1.700;2024-01-10T07:01:03;1.00;79.00
46926;DHT22;32667;48.248;-1.700;2024-01-10T07:03:31;1.00;79.00
46926;DHT22;32667;48.248;-1.700;2024-01-10T07:06:00;1.00;79.00
46926;DHT22;32667;48.248;-1.700;2024-01-10T07:08:26;1.00;79.00
46926;DHT22;32667;48.248;-1.700;2024-01-10T07:10:52;1.00;78.90
46926;DHT22;32667;48.248;-1.700;2024-01-10T07:13:20;1.00;78.90
46926;DHT22;32667;48.248;-1.700;2024-01-10T07:15:48;1.00;78.90
46926;DHT22;32667;48.248;-1.700;2024-01-10T07:18:16;1.00;78.90
46926;DHT22;32667;48.248;-1.700;2024-01-10T07:20:45;1.00;78.90
46926;DHT22;32667;48.248;-1.700;2024-01-10T07:23:18;1.00;78.90
46926;DHT22;32667;48.248;-1.700;2024-01-10T07:25:46;1.00;78.90
46926;DHT22;32667;48.248;-1.700;2024-01-10T07:28:12;1.00;78.90
46926;DHT22;32667;48.248;-1.700;2024-01-10T07:30:42;1.00;78.90
46926;DHT22;32667;48.248;-1.700;2024-01-10T07:33:10;1.10;78.90
46926;DHT22;32667;48.248;-1.700;2024-01-10T07:35:36;1.10;78.80
46926;DHT22;32667;48.248;-1.700;2024-01-10T07:38:03;1.10;78.70
46926;DHT22;32667;48.248;-1.700;2024-01-10T07:40:29;1.20;78.80
46926;DHT22;32667;48.248;-1.700;2024-01-10T07:42:55;1.20;78.70
46926;DHT22;32667;48.248;-1.700;2024-01-10T07:45:21;1.20;78.70
46926;DHT22;32667;48.248;-1.700;2024-01-10T07:47:48;1.20;78.70
46926;DHT22;32667;48.248;-1.700;2024-01-10T07:50:16;1.20;78.60
46926;DHT22;32667;48.248;-1.700;2024-01-10T07:52:45;1.10;78.50
46926;DHT22;32667;48.248;-1.700;2024-01-10T07:55:14;1.10;78.60
46926;DHT22;32667;48.248;-1.700;2024-01-10T07:57:40;1.00;78.80
46926;DHT22;32667;48.248;-1.700;2024-01-10T08:00:11;1.00;79.00
46926;DHT22;32667;48.248;-1.700;2024-01-10T08:02:39;0.90;78.90
46926;DHT22;32667;48.248;-1.700;2024-01-10T08:05:09;0.90;79.00
46926;DHT22;32667;48.248;-1.700;2024-01-10T08:07:38;0.90;79.10
46926;DHT22;32667;48.248;-1.700;2024-01-10T08:10:10;0.90;79.10
46926;DHT22;32667;48.248;-1.700;2024-01-10T08:12:39;0.90;79.10
46926;DHT22;32667;48.248;-1.700;2024-01-10T08:15:08;1.00;79.00
46926;DHT22;32667;48.248;-1.700;2024-01-10T08:17:39;1.00;79.00
46926;DHT22;32667;48.248;-1.700;2024-01-10T08:20:08;0.90;78.90
46926;DHT22;32667;48.248;-1.700;2024-01-10T08:22:33;1.00;79.00
46926;DHT22;32667;48.248;-1.700;2024-01-10T08:24:59;1.00;78.90
46926;DHT22;32667;48.248;-1.700;2024-01-10T08:27:25;1.00;79.00
46926;DHT22;32667;48.248;-1.700;2024-01-10T08:29:51;1.00;79.00
46926;DHT22;32667;48.248;-1.700;2024-01-10T08:32:17;1.00;79.00
46926;DHT22;32667;48.248;-1.700;2024-01-10T08:34:56;1.00;79.10
46926;DHT22;32667;48.248;-1.700;2024-01-10T08:37:24;1.00;79.00
46926;DHT22;32667;48.248;-1.700;2024-01-10T08:39:50;1.10;79.00
46926;DHT22;32667;48.248;-1.700;2024-01-10T08:42:21;1.10;78.80
46926;DHT22;32667;48.248;-1.700;2024-01-10T08:44:46;1.10;78.80
46926;DHT22;32667;48.248;-1.700;2024-01-10T08:47:12;1.10;78.70
46926;DHT22;32667;48.248;-1.700;2024-01-10T08:49:39;1.10;78.80
46926;DHT22;32667;48.248;-1.700;2024-01-10T08:52:05;1.10;78.80
46926;DHT22;32667;48.248;-1.700;2024-01-10T08:54:31;1.20;78.80
46926;DHT22;32667;48.248;-1.700;2024-01-10T08:56:59;1.20;78.70
46926;DHT22;32667;48.248;-1.700;2024-01-10T08:59:28;1.20;78.60
46926;DHT22;32667;48.248;-1.700;2024-01-10T09:01:55;1.20;78.70
46926;DHT22;32667;48.248;-1.700;2024-01-10T09:04:21;1.10;78.60
46926;DHT22;32667;48.248;-1.700;2024-01-10T09:06:47;1.10;78.70
46926;DHT22;32667;48.248;-1.700;2024-01-10T09:09:13;1.20;78.80
46926;DHT22;32667;48.248;-1.700;2024-01-10T09:11:39;1.20;78.70
46926;DHT22;32667;48.248;-1.700;2024-01-10T09:14:07;1.20;78.70
46926;DHT22;32667;48.248;-1.700;2024-01-10T09:16:34;1.10;78.60
46926;DHT22;32667;48.248;-1.700;2024-01-10T09:19:00;1.10;78.70
46926;DHT22;32667;48.248;-1.700;2024-01-10T09:21:28;1.10;78.70
46926;DHT22;32667;48.248;-1.700;2024-01-10T09:23:54;1.20;78.80
46926;DHT22;32667;48.248;-1.700;2024-01-10T09:26:23;1.20;79.30
46926;DHT22;32667;48.248;-1.700;2024-01-10T09:28:53;1.20;78.70
46926;DHT22;32667;48.248;-1.700;2024-01-10T09:31:21;1.20;78.60
46926;DHT22;32667;48.248;-1.700;2024-01-10T09:33:47;1.10;78.60
46926;DHT22;32667;48.248;-1.700;2024-01-10T09:36:12;1.10;78.70
46926;DHT22;32667;48.248;-1.700;2024-01-10T09:38:40;1.10;78.70
46926;DHT22;32667;48.248;-1.700;2024-01-10T09:41:06;1.10;78.80
46926;DHT22;32667;48.248;-1.700;2024-01-10T09:43:37;1.10;78.70
46926;DHT22;32667;48.248;-1.700;2024-01-10T09:46:10;1.10;78.80
46926;DHT22;32667;48.248;-1.700;2024-01-10T09:48:39;1.10;78.70
46926;DHT22;32667;48.248;-1.700;2024-01-10T09:51:05;1.10;78.70
46926;DHT22;32667;48.248;-1.700;2024-01-10T09:53:35;1.10;78.70
46926;DHT22;32667;48.248;-1.700;2024-01-10T09:56:13;1.20;78.80
46926;DHT22;32667;48.248;-1.700;2024-01-10T09:58:39;1.20;78.70
46926;DHT22;32667;48.248;-1.700;2024-01-10T10:01:08;1.20;78.60
46926;DHT22;32667;48.248;-1.700;2024-01-10T10:03:37;1.20;78.60
46926;DHT22;32667;48.248;-1.700;2024-01-10T10:06:07;1.20;78.60
46926;DHT22;32667;48.248;-1.700;2024-01-10T10:08:35;1.20;78.70
46926;DHT22;32667;48.248;-1.700;2024-01-10T10:11:05;1.30;78.60
46926;DHT22;32667;48.248;-1.700;2024-01-10T10:13:41;1.30;78.50
46926;DHT22;32667;48.248;-1.700;2024-01-10T10:16:10;1.30;78.50
46926;DHT22;32667;48.248;-1.700;2024-01-10T10:18:40;1.30;78.50
46926;DHT22;32667;48.248;-1.700;2024-01-10T10:21:13;1.40;78.50
46926;DHT22;32667;48.248;-1.700;2024-01-10T10:23:57;1.50;78.50
46926;DHT22;32667;48.248;-1.700;2024-01-10T10:26:23;1.50;78.40
46926;DHT22;32667;48.248;-1.700;2024-01-10T10:28:50;1.50;78.30
46926;DHT22;32667;48.248;-1.700;2024-01-10T10:31:20;1.50;78.30
46926;DHT22;32667;48.248;-1.700;2024-01-10T10:33:48;1.60;78.30
46926;DHT22;32667;48.248;-1.700;2024-01-10T10:36:14;1.60;78.30
46926;DHT22;32667;48.248;-1.700;2024-01-10T10:38:40;1.60;78.30
46926;DHT22;32667;48.248;-1.700;2024-01-10T10:41:10;1.60;78.40
46926;DHT22;32667;48.248;-1.700;2024-01-10T10:43:45;1.60;78.40
46926;DHT22;32667;48.248;-1.700;2024-01-10T10:46:12;1.60;78.40
46926;DHT22;32667;48.248;-1.700;2024-01-10T10:48:40;1.60;78.40
46926;DHT22;32667;48.248;-1.700;2024-01-10T10:54:09;1.50;78.40
46926;DHT22;32667;48.248;-1.700;2024-01-10T10:56:38;1.50;78.40
46926;DHT22;32667;48.248;-1.700;2024-01-10T10:59:07;1.50;78.40
46926;DHT22;32667;48.248;-1.700;2024-01-10T11:01:34;1.50;78.50
46926;DHT22;32667;48.248;-1.700;2024-01-10T11:04:03;1.50;78.50
46926;DHT22;32667;48.248;-1.700;2024-01-10T11:06:32;1.50;78.60
46926;DHT22;32667;48.248;-1.700;2024-01-10T11:09:06;1.40;78.50
46926;DHT22;32667;48.248;-1.700;2024-01-10T11:23:12;1.50;78.70
46926;DHT22;32667;48.248;-1.700;2024-01-10T11:25:45;1.50;78.60
46926;DHT22;32667;48.248;-1.700;2024-01-10T11:28:12;1.50;78.50
46926;DHT22;32667;48.248;-1.700;2024-01-10T11:30:50;1.60;78.50
46926;DHT22;32667;48.248;-1.700;2024-01-10T11:33:25;1.60;78.50
46926;DHT22;32667;48.248;-1.700;2024-01-10T11:36:16;1.60;78.40
46926;DHT22;32667;48.248;-1.700;2024-01-10T11:38:49;1.60;78.30
46926;DHT22;32667;48.248;-1.700;2024-01-10T11:41:26;1.70;78.40
46926;DHT22;32667;48.248;-1.700;2024-01-10T11:46:45;1.70;78.30
46926;DHT22;32667;48.248;-1.700;2024-01-10T11:49:13;1.70;78.20
46926;DHT22;32667;48.248;-1.700;2024-01-10T11:51:43;1.70;78.30
46926;DHT22;32667;48.248;-1.700;2024-01-10T11:54:09;1.70;78.30
46926;DHT22;32667;48.248;-1.700;2024-01-10T11:56:39;1.70;78.40
46926;DHT22;32667;48.248;-1.700;2024-01-10T11:59:15;1.70;78.40
46926;DHT22;32667;48.248;-1.700;2024-01-10T12:01:42;1.80;78.40
46926;DHT22;32667;48.248;-1.700;2024-01-10T12:04:08;1.80;78.40
46926;DHT22;32667;48.248;-1.700;2024-01-10T12:06:37;1.80;78.40
46926;DHT22;32667;48.248;-1.700;2024-01-10T12:09:12;1.80;78.40
46926;DHT22;32667;48.248;-1.700;2024-01-10T12:11:42;1.80;78.40
46926;DHT22;32667;48.248;-1.700;2024-01-10T12:14:11;1.80;78.40
46926;DHT22;32667;48.248;-1.700;2024-01-10T12:16:40;1.70;78.40
46926;DHT22;32667;48.248;-1.700;2024-01-10T12:19:08;1.80;78.60
46926;DHT22;32667;48.248;-1.700;2024-01-10T12:21:36;1.80;78.50
46926;DHT22;32667;48.248;-1.700;2024-01-10T12:24:05;1.80;78.50
46926;DHT22;32667;48.248;-1.700;2024-01-10T12:26:31;1.80;78.50
46926;DHT22;32667;48.248;-1.700;2024-01-10T12:29:00;1.80;78.40
46926;DHT22;32667;48.248;-1.700;2024-01-10T12:31:29;1.80;78.40
46926;DHT22;32667;48.248;-1.700;2024-01-10T12:33:58;1.80;78.50
46926;DHT22;32667;48.248;-1.700;2024-01-10T12:36:24;1.80;78.50
46926;DHT22;32667;48.248;-1.700;2024-01-10T12:38:53;1.80;78.50
46926;DHT22;32667;48.248;-1.700;2024-01-10T12:41:21;1.80;78.50
46926;DHT22;32667;48.248;-1.700;2024-01-10T12:43:52;1.80;78.60
46926;DHT22;32667;48.248;-1.700;2024-01-10T12:46:29;1.80;78.70
46926;DHT22;32667;48.248;-1.700;2024-01-10T12:49:06;1.80;78.60
46926;DHT22;32667;48.248;-1.700;2024-01-10T12:51:35;1.80;78.60
46926;DHT22;32667;48.248;-1.700;2024-01-10T12:54:16;1.90;78.60
46926;DHT22;32667;48.248;-1.700;2024-01-10T12:56:44;1.90;78.60
46926;DHT22;32667;48.248;-1.700;2024-01-10T12:59:19;1.80;78.40
46926;DHT22;32667;48.248;-1.700;2024-01-10T13:01:45;1.80;78.50
46926;DHT22;32667;48.248;-1.700;2024-01-10T13:04:11;1.90;78.60
46926;DHT22;32667;48.248;-1.700;2024-01-10T13:06:38;1.90;78.60
46926;DHT22;32667;48.248;-1.700;2024-01-10T13:09:08;1.90;78.50
46926;DHT22;32667;48.248;-1.700;2024-01-10T13:11:41;1.90;78.40
46926;DHT22;32667;48.248;-1.700;2024-01-10T13:14:07;1.90;78.40
46926;DHT22;32667;48.248;-1.700;2024-01-10T13:16:33;1.90;78.40
46926;DHT22;32667;48.248;-1.700;2024-01-10T13:18:58;1.90;78.30
46926;DHT22;32667;48.248;-1.700;2024-01-10T13:21:25;1.90;78.30
46926;DHT22;32667;48.248;-1.700;2024-01-10T13:23:53;1.80;78.40
46926;DHT22;32667;48.248;-1.700;2024-01-10T13:26:24;1.80;78.50
46926;DHT22;32667;48.248;-1.700;2024-01-10T13:28:52;1.90;79.20
46926;DHT22;32667;48.248;-1.700;2024-01-10T13:31:20;1.90;78.70
46926;DHT22;32667;48.248;-1.700;2024-01-10T13:33:51;1.90;78.60
46926;DHT22;32667;48.248;-1.700;2024-01-10T13:36:16;2.00;78.50
46926;DHT22;32667;48.248;-1.700;2024-01-10T13:38:44;2.00;78.50
46926;DHT22;32667;48.248;-1.700;2024-01-10T13:41:12;2.10;78.50
46926;DHT22;32667;48.248;-1.700;2024-01-10T13:43:47;2.10;78.40
46926;DHT22;32667;48.248;-1.700;2024-01-10T13:46:13;2.10;78.40
46926;DHT22;32667;48.248;-1.700;2024-01-10T13:48:39;2.10;78.40
46926;DHT22;32667;48.248;-1.700;2024-01-10T13:51:09;2.10;78.40
46926;DHT22;32667;48.248;-1.700;2024-01-10T13:53:37;2.10;78.30
46926;DHT22;32667;48.248;-1.700;2024-01-10T13:56:08;2.10;78.40
46926;DHT22;32667;48.248;-1.700;2024-01-10T13:58:34;2.20;78.40
46926;DHT22;32667;48.248;-1.700;2024-01-10T14:00:59;2.20;78.40
46926;DHT22;32667;48.248;-1.700;2024-01-10T14:03:26;2.20;78.30
46926;DHT22;32667;48.248;-1.700;2024-01-10T14:05:52;2.20;78.30
46926;DHT22;32667;48.248;-1.700;2024-01-10T14:08:18;2.20;78.40
46926;DHT22;32667;48.248;-1.700;2024-01-10T14:10:46;2.20;78.30
46926;DHT22;32667;48.248;-1.700;2024-01-10T14:13:11;2.20;78.30
46926;DHT22;32667;48.248;-1.700;2024-01-10T14:15:37;2.20;78.40
46926;DHT22;32667;48.248;-1.700;2024-01-10T14:18:03;2.20;78.30
46926;DHT22;32667;48.248;-1.700;2024-01-10T14:20:29;2.30;78.40
46926;DHT22;32667;48.248;-1.700;2024-01-10T14:22:55;2.20;78.20
46926;DHT22;32667;48.248;-1.700;2024-01-10T14:25:21;2.20;78.20
46926;DHT22;32667;48.248;-1.700;2024-01-10T14:27:47;2.30;78.10
46926;DHT22;32667;48.248;-1.700;2024-01-10T14:30:20;2.30;78.20
46926;DHT22;32667;48.248;-1.700;2024-01-10T14:32:48;2.30;78.20
46926;DHT22;32667;48.248;-1.700;2024-01-10T14:35:14;2.30;78.20
46926;DHT22;32667;48.248;-1.700;2024-01-10T14:37:43;2.30;78.20
46926;DHT22;32667;48.248;-1.700;2024-01-10T14:40:09;2.30;78.20
46926;DHT22;32667;48.248;-1.700;2024-01-10T14:42:37;2.30;78.10
46926;DHT22;32667;48.248;-1.700;2024-01-10T14:45:08;2.30;78.10
46926;DHT22;32667;48.248;-1.700;2024-01-10T14:47:36;2.30;78.20
46926;DHT22;32667;48.248;-1.700;2024-01-10T14:50:03;2.30;78.20
46926;DHT22;32667;48.248;-1.700;2024-01-10T14:52:32;2.20;78.20
46926;DHT22;32667;48.248;-1.700;2024-01-10T14:55:01;2.20;78.20
46926;DHT22;32667;48.248;-1.700;2024-01-10T14:57:30;2.20;78.30
46926;DHT22;32667;48.248;-1.700;2024-01-10T14:59:56;2.20;78.40
46926;DHT22;32667;48.248;-1.700;2024-01-10T15:02:21;2.20;78.30
46926;DHT22;32667;48.248;-1.700;2024-01-10T15:04:48;2.20;78.40
46926;DHT22;32667;48.248;-1.700;2024-01-10T15:07:15;2.20;78.30
46926;DHT22;32667;48.248;-1.700;2024-01-10T15:09:43;2.30;78.40
46926;DHT22;32667;48.248;-1.700;2024-01-10T15:12:11;2.30;78.40
46926;DHT22;32667;48.248;-1.700;2024-01-10T15:14:48;2.30;78.20
46926;DHT22;32667;48.248;-1.700;2024-01-10T15:17:14;2.30;78.20
46926;DHT22;32667;48.248;-1.700;2024-01-10T15:19:42;2.30;78.20
46926;DHT22;32667;48.248;-1.700;2024-01-10T15:22:09;2.30;78.20
46926;DHT22;32667;48.248;-1.700;2024-01-10T15:24:38;2.20;78.20
46926;DHT22;32667;48.248;-1.700;2024-01-10T15:27:04;2.20;78.30
46926;DHT22;32667;48.248;-1.700;2024-01-10T15:29:37;2.20;78.30
46926;DHT22;32667;48.248;-1.700;2024-01-10T15:32:06;2.20;78.30
46926;DHT22;32667;48.248;-1.700;2024-01-10T15:34:35;2.20;78.40
46926;DHT22;32667;48.248;-1.700;2024-01-10T15:37:01;2.20;78.40
46926;DHT22;32667;48.248;-1.700;2024-01-10T15:39:27;2.30;78.40
46926;DHT22;32667;48.248;-1.700;2024-01-10T15:41:55;2.20;78.30
46926;DHT22;32667;48.248;-1.700;2024-01-10T15:44:28;2.20;78.30
46926;DHT22;32667;48.248;-1.700;2024-01-10T15:47:04;2.20;78.30
46926;DHT22;32667;48.248;-1.700;2024-01-10T15:49:30;2.30;78.40
46926;DHT22;32667;48.248;-1.700;2024-01-10T15:51:56;2.20;78.30
46926;DHT22;32667;48.248;-1.700;2024-01-10T15:54:22;2.20;78.40